createdAt,value
2019-03-27T00:00:30.932Z,20.37
2019-03-27T00:03:02.657Z,20.05
2019-03-27T00:05:34.312Z,19.62
2019-03-27T00:08:06.075Z,20.40
2019-03-27T00:10:37.859Z,20.00
2019-03-27T00:13:29.473Z,20.68
2019-03-27T00:16:01.713Z,20.35
2019-03-27T00:18:33.880Z,19.37
2019-03-27T00:21:06.254Z,20.10
2019-03-27T00:23:38.839Z,19.55
2019-03-27T00:26:10.707Z,19.50
2019-03-27T00:28:42.766Z,20.27
2019-03-27T00:31:14.866Z,20.02
2019-03-27T00:33:46.819Z,21.30
2019-03-27T00:36:18.573Z,19.32
2019-03-27T00:38:50.327Z,19.07
2019-03-27T00:41:22.175Z,18.73
2019-03-27T00:43:54.064Z,17.00
2019-03-27T00:46:25.812Z,18.40
2019-03-27T00:48:57.487Z,17.60
2019-03-27T00:51:29.827Z,16.65
2019-03-27T00:54:01.519Z,18.35
2019-03-27T00:56:33.351Z,17.20
2019-03-27T00:59:05.032Z,18.82
2019-03-27T01:01:36.580Z,17.70
2019-03-27T01:04:08.931Z,18.07
2019-03-27T01:06:40.625Z,17.60
2019-03-27T01:09:12.364Z,17.17
2019-03-27T01:11:44.143Z,15.60
2019-03-27T01:14:16.077Z,15.20
2019-03-27T01:16:47.750Z,14.58
2019-03-27T01:19:19.704Z,14.47
2019-03-27T01:21:51.458Z,15.88
2019-03-27T01:24:23.800Z,16.15
2019-03-27T01:26:55.419Z,16.73
2019-03-27T01:29:27.159Z,16.42
2019-03-27T01:32:01.065Z,16.67
2019-03-27T01:34:33.018Z,17.77
2019-03-27T01:37:04.987Z,18.25
2019-03-27T01:39:36.466Z,17.52
2019-03-27T01:42:08.499Z,17.60
2019-03-27T01:44:40.398Z,16.57
2019-03-27T01:47:12.140Z,17.85
2019-03-27T01:49:43.899Z,16.95
2019-03-27T01:52:15.570Z,17.87
2019-03-27T01:54:47.517Z,17.55
2019-03-27T01:57:19.281Z,16.70
2019-03-27T01:59:50.841Z,17.50
2019-03-27T02:02:23.188Z,17.15
2019-03-27T02:04:54.857Z,16.40
2019-03-27T02:07:26.716Z,17.12
2019-03-27T02:09:58.195Z,16.67
2019-03-27T02:12:30.639Z,17.17
2019-03-27T02:15:02.336Z,16.20
2019-03-27T02:17:33.976Z,16.90
2019-03-27T02:20:06.140Z,16.05
2019-03-27T02:22:37.887Z,17.40
2019-03-27T02:25:10.303Z,16.70
2019-03-27T02:27:41.856Z,16.37
2019-03-27T02:30:13.582Z,15.60
2019-03-27T02:32:45.653Z,16.10
2019-03-27T02:35:17.222Z,15.90
2019-03-27T02:37:48.874Z,16.65
2019-03-27T02:40:20.819Z,14.63
2019-03-27T02:42:52.290Z,14.80
2019-03-27T02:45:24.431Z,15.30
2019-03-27T02:47:56.411Z,14.93
2019-03-27T02:50:28.181Z,14.40
2019-03-27T02:52:59.746Z,15.98
2019-03-27T02:55:41.200Z,15.72
2019-03-27T02:58:13.163Z,15.75
2019-03-27T03:00:45.141Z,16.02
2019-03-27T03:03:16.904Z,15.28
2019-03-27T03:05:48.670Z,15.98
2019-03-27T03:08:20.712Z,15.50
2019-03-27T03:10:52.591Z,14.90
2019-03-27T03:13:24.365Z,15.05
2019-03-27T03:15:56.322Z,15.32
2019-03-27T03:18:27.894Z,15.95
2019-03-27T03:20:59.627Z,14.13
2019-03-27T03:23:31.502Z,13.83
2019-03-27T03:26:03.505Z,14.18
2019-03-27T03:28:35.118Z,14.87
2019-03-27T03:31:08.320Z,14.50
2019-03-27T03:33:41.097Z,16.25
2019-03-27T03:36:13.056Z,15.03
2019-03-27T03:38:44.839Z,15.32
2019-03-27T03:41:17.409Z,15.88
2019-03-27T03:43:49.363Z,16.07
2019-03-27T03:46:20.940Z,15.32
2019-03-27T03:48:54.398Z,15.20
2019-03-27T03:51:26.186Z,15.58
2019-03-27T03:53:58.141Z,15.08
2019-03-27T03:56:31.133Z,14.80
2019-03-27T03:59:03.894Z,15.38
2019-03-27T04:01:37.160Z,15.85
2019-03-27T04:04:10.555Z,16.37
2019-03-27T04:06:42.265Z,15.75
2019-03-27T04:09:14.022Z,16.82
2019-03-27T04:11:45.700Z,16.50
2019-03-27T04:14:17.637Z,16.67
2019-03-27T04:16:49.293Z,15.90
2019-03-27T04:19:21.081Z,14.98
2019-03-27T04:21:53.005Z,14.20
2019-03-27T04:24:24.996Z,13.95
2019-03-27T04:26:57.166Z,15.10
2019-03-27T04:29:29.126Z,15.38
2019-03-27T04:32:00.884Z,15.63
2019-03-27T04:34:32.952Z,15.20
2019-03-27T04:37:04.996Z,15.45
2019-03-27T04:39:36.806Z,15.43
2019-03-27T04:42:08.434Z,15.78
2019-03-27T04:44:40.201Z,13.00
2019-03-27T04:47:12.239Z,12.75
2019-03-27T04:49:44.121Z,12.90
2019-03-27T04:52:15.796Z,13.30
2019-03-27T04:54:48.752Z,13.35
2019-03-27T04:57:20.523Z,13.38
2019-03-27T04:59:52.188Z,14.18
2019-03-27T05:02:24.140Z,14.30
2019-03-27T05:04:56.209Z,13.38
2019-03-27T05:07:28.168Z,14.63
2019-03-27T05:10:01.451Z,13.93
2019-03-27T05:12:33.930Z,14.28
2019-03-27T05:15:05.918Z,14.25
2019-03-27T05:17:45.943Z,14.63
2019-03-27T05:20:11.866Z,14.43
2019-03-27T05:22:44.246Z,13.90
2019-03-27T05:25:15.945Z,13.48
2019-03-27T05:27:48.313Z,11.78
2019-03-27T05:30:22.388Z,11.73
2019-03-27T05:32:54.278Z,11.40
2019-03-27T05:38:44.782Z,11.80
2019-03-27T05:41:16.840Z,11.85
2019-03-27T05:43:48.725Z,11.95
2019-03-27T05:46:20.369Z,11.68
2019-03-27T05:48:52.144Z,11.20
2019-03-27T05:51:24.185Z,11.30
2019-03-27T05:53:57.917Z,10.08
2019-03-27T05:56:29.669Z,10.95
2019-03-27T05:59:01.423Z,11.35
2019-03-27T06:01:34.252Z,9.95
2019-03-27T06:04:05.976Z,11.03
2019-03-27T06:06:37.541Z,11.90
2019-03-27T06:09:09.983Z,10.08
2019-03-27T06:11:41.659Z,10.53
2019-03-27T06:14:13.808Z,10.08
2019-03-27T06:16:45.685Z,10.28
2019-03-27T06:19:18.361Z,11.00
2019-03-27T06:21:50.230Z,10.75
2019-03-27T06:24:21.889Z,10.43
2019-03-27T06:26:53.547Z,9.78
2019-03-27T06:29:25.943Z,9.95
2019-03-27T06:31:57.585Z,10.58
2019-03-27T06:34:31.069Z,10.75
2019-03-27T06:37:03.742Z,10.55
2019-03-27T06:39:37.445Z,11.43
2019-03-27T06:42:10.499Z,11.10
2019-03-27T06:44:42.415Z,11.55
2019-03-27T06:47:13.994Z,10.85
2019-03-27T06:49:46.428Z,11.03
2019-03-27T06:52:19.097Z,12.40
2019-03-27T06:54:50.807Z,11.90
2019-03-27T06:57:22.936Z,13.95
2019-03-27T06:59:58.090Z,13.30
2019-03-27T07:02:29.451Z,13.90
2019-03-27T07:05:02.148Z,12.78
2019-03-27T07:07:33.785Z,13.22
2019-03-27T07:10:05.948Z,13.40
2019-03-27T07:12:38.305Z,12.37
2019-03-27T07:15:09.984Z,12.33
2019-03-27T07:17:41.940Z,12.50
2019-03-27T07:20:14.641Z,13.00
2019-03-27T07:22:46.589Z,13.58
2019-03-27T07:25:18.154Z,13.75
2019-03-27T07:27:49.922Z,13.80
2019-03-27T07:30:22.097Z,15.15
2019-03-27T07:32:54.943Z,15.08
2019-03-27T07:35:26.519Z,13.48
2019-03-27T07:37:58.596Z,14.47
2019-03-27T07:40:31.499Z,14.58
2019-03-27T07:43:03.897Z,14.15
2019-03-27T07:45:36.437Z,14.20
2019-03-27T07:48:08.468Z,12.53
2019-03-27T07:50:40.435Z,14.20
2019-03-27T07:53:22.210Z,13.70
2019-03-27T07:55:52.432Z,14.47
2019-03-27T07:58:24.122Z,13.75
2019-03-27T08:00:55.796Z,14.65
2019-03-27T08:03:33.467Z,15.00
2019-03-27T08:06:05.163Z,14.70
2019-03-27T08:08:37.100Z,14.20
2019-03-27T08:11:10.613Z,13.45
2019-03-27T08:13:42.583Z,14.45
2019-03-27T08:16:15.007Z,14.00
2019-03-27T08:18:46.909Z,13.28
2019-03-27T08:21:19.985Z,12.88
2019-03-27T08:23:53.132Z,10.58
2019-03-27T08:26:24.848Z,10.80
2019-03-27T08:28:57.700Z,11.10
2019-03-27T08:31:29.826Z,11.48
2019-03-27T08:34:02.818Z,10.50
2019-03-27T08:36:36.270Z,10.35
2019-03-27T08:39:09.786Z,10.38
2019-03-27T08:41:41.554Z,10.13
2019-03-27T08:44:15.925Z,10.40
2019-03-27T08:46:48.743Z,10.80
2019-03-27T08:49:22.475Z,10.60
2019-03-27T08:51:54.016Z,10.10
2019-03-27T08:54:25.890Z,10.90
2019-03-27T08:56:58.516Z,11.48
2019-03-27T08:59:31.630Z,9.90
2019-03-27T09:02:04.387Z,9.90
2019-03-27T09:04:36.280Z,8.80
2019-03-27T09:07:10.065Z,9.00
2019-03-27T09:09:41.858Z,9.18
2019-03-27T09:12:13.417Z,9.05
2019-03-27T09:14:47.656Z,8.70
2019-03-27T09:17:19.781Z,8.73
2019-03-27T09:19:55.125Z,9.05
2019-03-27T09:22:27.192Z,9.20
2019-03-27T09:24:59.465Z,9.43
2019-03-27T09:27:31.635Z,9.18
2019-03-27T09:30:03.508Z,9.23
2019-03-27T09:32:35.701Z,8.80
2019-03-27T09:35:07.974Z,8.83
2019-03-27T09:37:40.454Z,7.97
2019-03-27T09:40:14.629Z,9.33
2019-03-27T09:42:46.209Z,8.78
2019-03-27T09:45:18.303Z,9.13
2019-03-27T09:47:51.760Z,8.28
2019-03-27T09:50:24.226Z,9.33
2019-03-27T09:52:55.905Z,8.55
2019-03-27T09:55:27.770Z,8.93
2019-03-27T09:57:59.535Z,8.13
2019-03-27T10:00:42.443Z,8.50
2019-03-27T10:03:14.868Z,8.63
2019-03-27T10:05:47.174Z,8.38
2019-03-27T10:08:19.343Z,8.43
2019-03-27T10:10:51.531Z,9.13
2019-03-27T10:13:23.106Z,8.93
2019-03-27T10:15:54.646Z,9.20
2019-03-27T10:18:26.592Z,9.18
2019-03-27T10:20:57.875Z,7.67
2019-03-27T10:23:29.671Z,8.23
2019-03-27T10:26:01.299Z,8.48
2019-03-27T10:28:35.652Z,9.23
2019-03-27T10:31:07.636Z,9.40
2019-03-27T10:33:40.113Z,9.38
2019-03-27T10:36:12.002Z,8.90
2019-03-27T10:38:43.667Z,8.43
2019-03-27T10:41:15.608Z,10.03
2019-03-27T10:43:47.378Z,9.20
2019-03-27T10:46:19.240Z,9.65
2019-03-27T10:48:52.738Z,9.80
2019-03-27T10:51:25.056Z,9.68
2019-03-27T10:54:01.832Z,10.08
2019-03-27T10:56:33.543Z,9.63
2019-03-27T10:59:05.285Z,10.58
2019-03-27T11:01:36.861Z,10.35
2019-03-27T11:04:08.627Z,10.15
2019-03-27T11:06:42.039Z,9.68
2019-03-27T11:09:13.972Z,10.50
2019-03-27T11:11:46.587Z,10.80
2019-03-27T11:14:18.311Z,10.23
2019-03-27T11:16:52.431Z,10.05
2019-03-27T11:19:24.229Z,10.60
2019-03-27T11:21:55.665Z,10.32
2019-03-27T11:24:28.415Z,10.23
2019-03-27T11:27:00.579Z,10.00
2019-03-27T11:29:32.145Z,9.88
2019-03-27T11:32:03.627Z,9.48
2019-03-27T11:34:37.948Z,10.30
2019-03-27T11:37:10.078Z,10.53
2019-03-27T11:39:42.995Z,10.05
2019-03-27T11:42:14.450Z,11.03
2019-03-27T11:44:47.422Z,9.48
2019-03-27T11:47:19.108Z,10.28
2019-03-27T11:49:51.008Z,10.20
2019-03-27T11:52:25.173Z,10.13
2019-03-27T11:54:58.262Z,9.70
2019-03-27T11:57:29.721Z,10.32
2019-03-27T12:00:02.542Z,8.98
2019-03-27T12:02:34.152Z,9.08
2019-03-27T12:05:26.689Z,9.25
2019-03-27T12:07:58.536Z,9.60
2019-03-27T12:10:30.410Z,9.23
2019-03-27T12:13:02.734Z,8.98
2019-03-27T12:15:50.521Z,9.23
2019-03-27T12:18:23.400Z,9.08
2019-03-27T12:20:59.438Z,9.45
2019-03-27T12:26:01.346Z,9.40
2019-03-27T12:28:34.283Z,10.08
2019-03-27T12:31:07.878Z,9.98
2019-03-27T12:33:39.080Z,9.88
2019-03-27T12:36:11.848Z,10.45
2019-03-27T12:38:43.422Z,9.48
2019-03-27T12:41:14.887Z,9.70
2019-03-27T12:43:54.912Z,10.58
2019-03-27T12:46:30.968Z,11.10
2019-03-27T12:49:02.847Z,11.30
2019-03-27T12:51:36.678Z,10.40
2019-03-27T12:54:09.358Z,10.50
2019-03-27T12:56:40.508Z,10.88
2019-03-27T12:59:14.028Z,10.40
2019-03-27T13:01:48.540Z,10.90
2019-03-27T13:04:19.882Z,11.48
2019-03-27T13:06:52.184Z,10.72
2019-03-27T13:09:24.960Z,10.40
2019-03-27T13:11:56.583Z,10.98
2019-03-27T13:14:38.366Z,11.20
2019-03-27T13:17:09.828Z,10.20
2019-03-27T13:19:43.406Z,10.85
2019-03-27T13:22:16.753Z,10.75
2019-03-27T13:24:52.410Z,11.28
2019-03-27T13:27:24.902Z,12.43
2019-03-27T13:29:56.702Z,11.70
2019-03-27T13:32:28.479Z,11.65
2019-03-27T13:35:02.051Z,11.85
2019-03-27T13:37:36.839Z,12.30
2019-03-27T13:40:10.271Z,12.00
2019-03-27T13:42:45.030Z,11.10
2019-03-27T13:45:40.177Z,11.30
2019-03-27T13:48:20.374Z,10.70
2019-03-27T13:50:55.965Z,11.80
2019-03-27T13:53:27.501Z,10.38
2019-03-27T13:56:00.791Z,10.58
2019-03-27T13:58:33.515Z,10.38
2019-03-27T14:01:08.635Z,11.43
2019-03-27T14:03:39.370Z,11.22
2019-03-27T14:09:54.864Z,12.55
2019-03-27T14:12:29.010Z,11.68
2019-03-27T14:18:43.292Z,10.98
2019-03-27T14:21:15.881Z,11.57
2019-03-27T14:23:53.401Z,10.70
2019-03-27T14:26:27.106Z,10.72
2019-03-27T14:29:02.256Z,10.72
2019-03-27T14:31:35.470Z,10.85
2019-03-27T14:34:11.788Z,11.22
2019-03-27T14:36:43.952Z,11.35
2019-03-27T14:39:17.238Z,10.55
2019-03-27T14:41:51.711Z,10.70
2019-03-27T14:44:25.554Z,9.98
2019-03-27T14:46:58.435Z,10.45
2019-03-27T14:49:33.452Z,11.35
2019-03-27T14:52:08.514Z,11.83
2019-03-27T14:55:16.573Z,10.75
2019-03-27T15:01:50.728Z,10.85
2019-03-27T15:04:33.435Z,10.95
2019-03-27T15:07:05.414Z,10.38
2019-03-27T15:09:38.192Z,10.93
2019-03-27T15:12:29.980Z,10.50
2019-03-27T15:15:37.988Z,11.53
2019-03-27T15:18:11.827Z,10.58
2019-03-27T15:20:43.297Z,11.63
2019-03-27T15:23:15.285Z,11.38
2019-03-27T15:25:46.937Z,10.65
2019-03-27T15:28:19.570Z,10.88
2019-03-27T15:30:51.267Z,10.85
2019-03-27T15:33:24.522Z,10.72
2019-03-27T15:36:16.216Z,11.60
2019-03-27T15:38:48.054Z,11.50
2019-03-27T15:41:21.163Z,10.78
2019-03-27T15:43:53.117Z,11.20
2019-03-27T15:46:26.168Z,10.58
2019-03-27T15:49:01.238Z,10.32
2019-03-27T15:51:32.984Z,11.22
2019-03-27T15:54:07.666Z,11.20
2019-03-27T15:56:40.885Z,11.00
2019-03-27T15:59:12.569Z,11.00
2019-03-27T16:01:44.244Z,11.00
2019-03-27T16:04:21.082Z,10.55
2019-03-27T16:06:52.862Z,10.63
2019-03-27T16:09:44.474Z,10.58
2019-03-27T16:12:17.236Z,10.88
2019-03-27T16:14:49.135Z,10.45
2019-03-27T16:17:20.881Z,11.12
2019-03-27T16:19:54.584Z,10.65
2019-03-27T16:22:28.147Z,10.88
2019-03-27T16:24:59.954Z,10.58
2019-03-27T16:27:31.627Z,10.10
2019-03-27T16:30:03.315Z,10.35
2019-03-27T16:32:35.635Z,10.90
2019-03-27T16:35:08.341Z,11.08
2019-03-27T16:37:40.184Z,10.50
2019-03-27T16:40:13.987Z,10.40
2019-03-27T16:42:46.188Z,11.15
2019-03-27T16:45:19.470Z,10.03
2019-03-27T16:47:51.919Z,10.60
2019-03-27T16:50:23.896Z,10.80
2019-03-27T16:53:03.401Z,10.90
2019-03-27T16:55:29.790Z,11.18
2019-03-27T16:58:04.894Z,10.50
2019-03-27T17:00:37.348Z,11.12
2019-03-27T17:03:09.242Z,10.63
2019-03-27T17:05:53.435Z,11.65
2019-03-27T17:08:16.976Z,10.82
2019-03-27T17:10:48.221Z,11.15
2019-03-27T17:13:20.180Z,11.05
2019-03-27T17:15:51.855Z,11.12
2019-03-27T17:18:23.521Z,10.90
2019-03-27T17:20:55.465Z,10.60
2019-03-27T17:23:27.229Z,11.22
2019-03-27T17:25:59.790Z,11.38
2019-03-27T17:28:31.454Z,11.50
2019-03-27T17:31:03.911Z,11.35
2019-03-27T17:33:35.584Z,11.73
2019-03-27T17:36:08.944Z,11.08
2019-03-27T17:38:40.451Z,11.12
2019-03-27T17:41:12.102Z,11.83
2019-03-27T17:43:44.293Z,11.00
2019-03-27T17:46:16.035Z,11.20
2019-03-27T17:48:47.576Z,11.90
2019-03-27T17:51:19.852Z,11.95
2019-03-27T17:53:51.619Z,10.63
2019-03-27T17:56:23.362Z,11.03
2019-03-27T17:58:55.150Z,10.50
2019-03-27T18:01:26.881Z,11.53
2019-03-27T18:03:58.543Z,10.32
2019-03-27T18:06:30.307Z,10.48
2019-03-27T18:09:01.970Z,11.43
2019-03-27T18:11:33.718Z,10.75
2019-03-27T18:14:05.649Z,10.88
2019-03-27T18:16:37.238Z,10.40
2019-03-27T18:19:09.121Z,11.33
2019-03-27T18:21:41.061Z,10.82
2019-03-27T18:24:12.628Z,10.78
2019-03-27T18:26:44.976Z,11.63
2019-03-27T18:29:17.045Z,12.50
2019-03-27T18:31:48.920Z,12.53
2019-03-27T18:34:20.700Z,11.33
2019-03-27T18:36:52.657Z,10.70
2019-03-27T18:39:24.209Z,10.50
2019-03-27T18:41:55.955Z,10.23
2019-03-27T18:44:46.698Z,11.53
2019-03-27T18:47:18.227Z,10.30
2019-03-27T18:49:50.076Z,10.38
2019-03-27T18:52:22.141Z,10.93
2019-03-27T18:54:53.805Z,10.63
2019-03-27T18:57:25.377Z,11.05
2019-03-27T18:59:57.122Z,10.98
2019-03-27T19:02:28.991Z,10.93
2019-03-27T19:05:01.029Z,11.12
2019-03-27T19:07:32.919Z,11.48
2019-03-27T19:10:04.681Z,10.20
2019-03-27T19:12:36.640Z,11.15
2019-03-27T19:15:09.903Z,11.10
2019-03-27T19:17:41.784Z,10.85
2019-03-27T19:20:13.548Z,11.08
2019-03-27T19:22:45.006Z,11.22
2019-03-27T19:25:16.960Z,10.55
2019-03-27T19:27:48.719Z,10.75
2019-03-27T19:30:20.705Z,10.58
2019-03-27T19:32:52.363Z,10.53
2019-03-27T19:35:24.220Z,11.12
2019-03-27T19:37:56.072Z,10.70
2019-03-27T19:40:27.739Z,11.15
2019-03-27T19:42:59.529Z,10.63
2019-03-27T19:45:31.639Z,11.05
2019-03-27T19:48:03.705Z,11.83
2019-03-27T19:50:35.673Z,11.10
2019-03-27T19:53:07.967Z,10.93
2019-03-27T19:55:40.008Z,11.15
2019-03-27T19:58:11.795Z,11.22
2019-03-27T20:00:43.542Z,11.10
2019-03-27T20:03:15.409Z,11.48
2019-03-27T20:05:47.104Z,12.25
2019-03-27T20:08:18.723Z,11.48
2019-03-27T20:10:50.419Z,11.93
2019-03-27T20:13:22.130Z,10.72
2019-03-27T20:15:53.987Z,11.05
2019-03-27T20:18:25.464Z,11.15
2019-03-27T20:20:57.914Z,11.20
2019-03-27T20:23:29.604Z,10.82
2019-03-27T20:26:01.443Z,11.35
2019-03-27T20:28:33.201Z,11.57
2019-03-27T20:31:04.870Z,11.50
2019-03-27T20:33:38.215Z,10.65
2019-03-27T20:36:12.942Z,11.15
2019-03-27T20:38:42.885Z,11.45
2019-03-27T20:41:14.765Z,11.80
2019-03-27T20:43:46.331Z,11.63
2019-03-27T20:46:24.907Z,11.12
2019-03-27T20:48:52.285Z,11.22
2019-03-27T20:51:24.171Z,11.10
2019-03-27T20:53:56.326Z,10.85
2019-03-27T20:56:28.080Z,11.20
2019-03-27T20:59:01.256Z,11.57
2019-03-27T21:01:32.939Z,11.50
2019-03-27T21:04:04.991Z,11.78
2019-03-27T21:06:36.772Z,11.65
2019-03-27T21:09:09.090Z,11.80
2019-03-27T21:11:40.622Z,11.70
2019-03-27T21:14:12.480Z,11.65
2019-03-27T21:16:44.226Z,11.18
2019-03-27T21:19:15.771Z,11.22
2019-03-27T21:21:48.228Z,11.15
2019-03-27T21:24:19.913Z,10.75
2019-03-27T21:26:51.867Z,11.60
2019-03-27T21:29:23.424Z,11.53
2019-03-27T21:31:55.371Z,11.65
2019-03-27T21:34:27.250Z,12.25
2019-03-27T21:36:58.902Z,12.23
2019-03-27T21:39:30.773Z,12.65
2019-03-27T21:42:03.021Z,12.03
2019-03-27T21:44:34.994Z,12.70
2019-03-27T21:47:06.880Z,12.58
2019-03-27T21:49:38.834Z,12.78
2019-03-27T21:52:10.392Z,11.95
2019-03-27T21:54:42.453Z,12.50
2019-03-27T21:57:14.117Z,12.78
2019-03-27T21:59:45.966Z,12.58
2019-03-27T22:02:17.729Z,11.60
2019-03-27T22:04:49.391Z,12.28
2019-03-27T22:07:21.162Z,12.93
2019-03-27T22:09:53.008Z,12.95
2019-03-27T22:12:24.660Z,12.33
2019-03-27T22:14:56.337Z,13.20
2019-03-27T22:17:27.988Z,12.18
2019-03-27T22:19:59.531Z,12.20
2019-03-27T22:22:31.512Z,11.80
2019-03-27T22:25:03.057Z,12.82
2019-03-27T22:27:34.919Z,12.50
2019-03-27T22:30:07.548Z,11.78
2019-03-27T22:32:39.360Z,12.23
2019-03-27T22:35:11.624Z,11.85
2019-03-27T22:37:43.289Z,12.40
2019-03-27T22:40:15.062Z,12.45
2019-03-27T22:42:46.702Z,11.97
2019-03-27T22:45:18.763Z,11.90
2019-03-27T22:47:50.741Z,12.25
2019-03-27T22:50:22.581Z,12.65
2019-03-27T22:52:54.156Z,12.33
2019-03-27T22:55:25.906Z,12.33
2019-03-27T22:57:57.967Z,12.13
2019-03-27T23:00:34.326Z,12.15
2019-03-27T23:03:17.749Z,11.80
2019-03-27T23:05:39.298Z,13.03
2019-03-27T23:08:11.344Z,12.07
2019-03-27T23:10:43.015Z,12.60
2019-03-27T23:13:14.976Z,11.90
2019-03-27T23:15:46.659Z,12.70
2019-03-27T23:18:18.196Z,12.13
2019-03-27T23:20:50.150Z,11.57
2019-03-27T23:23:21.812Z,11.60
2019-03-27T23:26:02.979Z,11.70
2019-03-27T23:28:26.586Z,13.00
2019-03-27T23:30:58.320Z,12.37
2019-03-27T23:33:29.980Z,12.60
2019-03-27T23:36:01.645Z,12.13
2019-03-27T23:38:33.588Z,13.13
2019-03-27T23:41:05.059Z,12.93
2019-03-27T23:43:37.103Z,12.58
2019-03-27T23:46:08.981Z,13.15
2019-03-27T23:48:41.173Z,13.32
2019-03-27T23:51:13.107Z,13.28
2019-03-27T23:53:44.585Z,20.23
2019-03-27T23:56:17.246Z,13.90
